Time;durP1;ratioP1;P1;durP2;ratioP2;P2;SDS_P1;SDS_P2;PMS_P1;PMS_P2;Temp;Humidity;BMP_temperature;BMP_pressure;BME280_temperature;BME280_humidity;BME280_pressure;Samples;Min_cycle;Max_cycle;Signal;HPM_P1;HPM_P2
2023/07/09 00:02:20;;;;;;;5.53;2.83;;;;;;;19.22;100.00;100722.91;5001291;28;20383;-76
2023/07/09 00:04:46;;;;;;;4.07;2.22;;;;;;;19.11;100.00;100688.66;5003427;28;20454;-76
2023/07/09 00:07:19;;;;;;;5.70;2.03;;;;;;;19.07;100.00;100680.81;5000077;28;20196;-77
2023/07/09 00:09:44;;;;;;;3.58;1.65;;;;;;;19.10;100.00;100704.66;5002310;28;20034;-76
2023/07/09 00:12:15;;;;;;;3.65;1.70;;;;;;;19.05;100.00;100696.81;5007400;28;20560;-75
2023/07/09 00:14:41;;;;;;;2.83;1.20;;;;;;;18.58;100.00;100615.81;5001233;28;20042;-76
2023/07/09 00:17:12;;;;;;;1.38;1.05;;;;;;;19.06;100.00;100725.19;4997729;28;20054;-76
2023/07/09 00:19:38;;;;;;;3.33;1.23;;;;;;;18.51;100.00;100626.59;5002916;28;20100;-75
2023/07/09 00:22:16;;;;;;;4.45;2.20;;;;;;;18.74;100.00;100670.25;5001620;28;20398;-76
2023/07/09 00:24:44;;;;;;;4.13;2.20;;;;;;;18.83;100.00;100733.84;5000201;28;20105;-75
2023/07/09 00:27:10;;;;;;;6.72;2.03;;;;;;;19.00;100.00;100728.00;4999860;28;20044;-76
2023/07/09 00:29:36;;;;;;;4.97;2.00;;;;;;;18.76;100.00;100719.84;4988341;28;20182;-75
2023/07/09 00:32:01;;;;;;;3.33;1.75;;;;;;;18.83;100.00;100680.66;5001212;28;20050;-75
2023/07/09 00:34:27;;;;;;;2.58;1.77;;;;;;;19.05;100.00;100733.19;5002939;28;20466;-75
2023/07/09 00:36:53;;;;;;;4.90;3.10;;;;;;;19.16;100.00;100731.09;4997223;28;20030;-76
2023/07/09 00:39:22;;;;;;;3.65;2.08;;;;;;;18.97;100.00;100723.66;5002471;28;20137;-75
2023/07/09 00:41:50;;;;;;;2.03;1.15;;;;;;;18.89;100.00;100730.13;5000855;28;20073;-74
2023/07/09 00:44:30;;;;;;;4.63;1.90;;;;;;;18.71;100.00;100713.75;5004080;28;20521;-77
2023/07/09 00:47:00;;;;;;;3.53;1.75;;;;;;;18.92;100.00;100730.91;4999138;28;20559;-78
2023/07/09 00:49:46;;;;;;;5.38;2.05;;;;;;;18.78;100.00;100722.47;5002426;28;20124;-76
2023/07/09 00:52:35;;;;;;;4.10;1.67;;;;;;;18.26;100.00;100644.16;5001518;28;20034;-75
2023/07/09 00:55:08;;;;;;;4.97;2.28;;;;;;;18.64;100.00;100704.22;4996352;28;21707;-76
2023/07/09 00:57:37;;;;;;;;;;;;;;;18.90;100.00;100738.06;5003432;28;20080;-76
2023/07/09 01:00:09;;;;;;;3.45;1.90;;;;;;;18.95;100.00;100738.78;4996616;28;19932;-77
2023/07/09 01:02:39;;;;;;;2.75;1.50;;;;;;;18.91;100.00;100729.16;4998142;28;20049;-76
2023/07/09 01:05:06;;;;;;;10.30;2.40;;;;;;;18.97;100.00;100733.44;4997522;28;20077;-77
2023/07/09 01:07:32;;;;;;;2.38;1.35;;;;;;;18.85;100.00;100734.66;5002463;28;20057;-76
2023/07/09 01:09:58;;;;;;;5.72;2.05;;;;;;;18.59;100.00;100702.59;4995641;28;20504;-76
2023/07/09 01:12:25;;;;;;;3.30;2.35;;;;;;;18.81;100.00;100730.34;4999236;28;20065;-77
2023/07/09 01:14:58;;;;;;;5.13;1.40;;;;;;;18.51;100.00;100697.50;4993820;28;20738;-76
2023/07/09 01:17:27;;;;;;;7.43;2.50;;;;;;;18.24;100.00;100646.88;4995235;28;20049;-76
2023/07/09 01:19:54;;;;;;;4.80;2.47;;;;;;;18.87;100.00;100737.25;4983881;28;20457;-76
2023/07/09 01:22:21;;;;;;;4.47;2.40;;;;;;;18.93;100.00;100751.25;5003312;28;20092;-76
2023/07/09 01:25:06;;;;;;;4.13;2.28;;;;;;;18.83;100.00;100751.59;5002502;28;20026;-76
2023/07/09 01:27:37;;;;;;;3.25;2.15;;;;;;;18.27;100.00;100664.53;5000102;28;20077;-76
2023/07/09 01:30:06;;;;;;;5.35;2.20;;;;;;;18.31;100.00;100680.34;4979007;28;20046;-76
2023/07/09 01:32:33;;;;;;;6.07;2.38;;;;;;;18.37;100.00;100666.00;5000391;28;20129;-77
2023/07/09 01:35:04;;;;;;;4.30;2.10;;;;;;;18.60;100.00;100714.97;4999926;28;20041;-76
2023/07/09 01:37:30;;;;;;;7.15;1.83;;;;;;;18.38;100.00;100678.38;5002859;28;20061;-76
2023/07/09 01:39:56;;;;;;;5.68;2.78;;;;;;;18.17;100.00;100666.56;5003736;28;20049;-76
2023/07/09 01:42:25;;;;;;;4.07;2.25;;;;;;;17.89;100.00;100619.50;5002290;28;20220;-76
2023/07/09 01:44:53;;;;;;;4.78;2.03;;;;;;;18.26;100.00;100682.25;5000780;28;20196;-76
2023/07/09 01:47:19;;;;;;;9.00;3.88;;;;;;;18.82;100.00;100757.78;5001268;28;20140;-75
2023/07/09 01:49:46;;;;;;;2.72;1.50;;;;;;;17.70;100.00;100666.00;5004850;28;20061;-76
2023/07/09 01:52:13;;;;;;;4.35;2.97;;;;;;;18.31;100.00;100768.00;4995846;28;20025;-76
2023/07/09 01:54:39;;;;;;;4.82;2.13;;;;;;;18.39;100.00;100770.47;5009925;28;20045;-77
2023/07/09 01:57:23;;;;;;;4.63;1.98;;;;;;;18.06;100.00;100690.75;5003059;28;20046;-76
2023/07/09 01:59:54;;;;;;;7.70;3.30;;;;;;;17.77;100.00;100685.28;5004259;28;20053;-76
2023/07/09 02:02:20;;;;;;;7.38;3.13;;;;;;;18.55;100.00;100773.56;5002455;28;20066;-77
2023/07/09 02:04:47;;;;;;;7.05;3.22;;;;;;;18.30;100.00;100781.31;4997670;28;20764;-77
2023/07/09 02:07:14;;;;;;;4.38;1.70;;;;;;;18.01;100.00;100695.31;5001683;28;20099;-76
2023/07/09 02:09:39;;;;;;;5.55;2.53;;;;;;;18.17;100.00;100774.56;4999307;28;20088;-76
2023/07/09 02:12:05;;;;;;;5.50;2.10;;;;;;;18.29;100.00;100774.28;5000974;28;20081;-77
2023/07/09 02:14:31;;;;;;;3.28;1.63;;;;;;;18.28;100.00;100793.78;5000303;28;20107;-76
2023/07/09 02:16:57;;;;;;;4.35;2.15;;;;;;;17.70;100.00;100687.25;5004152;28;20494;-77
2023/07/09 02:19:22;;;;;;;5.32;3.20;;;;;;;18.05;100.00;100728.84;4999451;28;20093;-76
2023/07/09 02:21:47;;;;;;;4.13;2.55;;;;;;;18.19;100.00;100736.47;4999934;28;20038;-77
2023/07/09 02:24:13;;;;;;;6.35;3.45;;;;;;;18.40;100.00;100792.56;5002218;28;20045;-77
2023/07/09 02:26:38;;;;;;;4.78;1.85;;;;;;;18.41;100.00;100803.19;4998999;28;20401;-76
2023/07/09 02:29:04;;;;;;;4.53;2.47;;;;;;;18.09;100.00;100774.78;5003477;28;20092;-76
2023/07/09 02:31:30;;;;;;;8.02;3.08;;;;;;;17.72;100.00;100712.81;4983090;28;20394;-77
2023/07/09 02:33:56;;;;;;;6.60;2.13;;;;;;;17.65;100.00;100710.34;4998867;28;20080;-77
2023/07/09 02:36:24;;;;;;;2.08;1.23;;;;;;;17.30;100.00;100645.72;4999877;28;20053;-76
2023/07/09 02:38:49;;;;;;;4.93;2.20;;;;;;;18.22;100.00;100820.50;4999075;28;20600;-77
2023/07/09 02:41:15;;;;;;;5.65;2.47;;;;;;;17.86;100.00;100747.03;5000245;28;20046;-77
2023/07/09 02:43:40;;;;;;;4.72;2.80;;;;;;;18.04;100.00;100796.13;5003359;28;20096;-78
2023/07/09 02:46:06;;;;;;;4.40;2.80;;;;;;;17.45;100.00;100698.44;4997424;28;20037;-78
2023/07/09 02:48:31;;;;;;;3.47;2.03;;;;;;;18.09;100.00;100806.66;5000006;28;20455;-78
2023/07/09 02:50:57;;;;;;;4.15;2.40;;;;;;;17.85;100.00;100782.44;4986317;28;20740;-77
2023/07/09 02:53:22;;;;;;;4.28;2.67;;;;;;;17.98;100.00;100821.97;5003497;28;20045;-78
2023/07/09 02:55:48;;;;;;;7.43;2.55;;;;;;;17.46;100.00;100737.31;4996744;28;20057;-77
2023/07/09 02:58:13;;;;;;;6.57;2.35;;;;;;;17.41;100.00;100725.94;5002855;28;20080;-78
2023/07/09 03:00:38;;;;;;;4.00;2.97;;;;;;;17.96;100.00;100827.31;4969935;28;20081;-78
2023/07/09 03:03:04;;;;;;;5.80;1.88;;;;;;;17.88;100.00;100810.69;5002501;28;20474;-78
2023/07/09 03:05:29;;;;;;;5.80;2.08;;;;;;;17.52;100.00;100734.53;4996133;28;20038;-77
2023/07/09 03:07:55;;;;;;;5.97;2.17;;;;;;;17.65;100.00;100835.97;4996243;28;20166;-77
2023/07/09 03:10:20;;;;;;;3.42;1.83;;;;;;;17.94;100.00;100823.84;4996817;28;20041;-77
2023/07/09 03:12:46;;;;;;;5.28;2.47;;;;;;;17.40;100.00;100748.09;5003843;28;20030;-77
2023/07/09 03:15:12;;;;;;;4.38;1.60;;;;;;;17.50;100.00;100762.00;4995312;28;20053;-77
2023/07/09 03:17:37;;;;;;;3.97;2.08;;;;;;;17.65;100.00;100806.78;4997075;28;20058;-78
2023/07/09 03:20:03;;;;;;;5.45;2.65;;;;;;;17.86;100.00;100815.16;4999302;28;20049;-77
2023/07/09 03:22:28;;;;;;;2.95;1.92;;;;;;;17.37;100.00;100740.19;5003676;28;20046;-78
2023/07/09 03:24:54;;;;;;;3.75;2.22;;;;;;;17.91;100.00;100846.03;4998313;28;20374;-77
2023/07/09 03:27:19;;;;;;;4.25;2.45;;;;;;;17.89;100.00;100846.97;5000425;28;20127;-77
2023/07/09 03:29:45;;;;;;;4.88;2.08;;;;;;;18.00;100.00;100849.34;4999917;28;20097;-78
2023/07/09 03:32:10;;;;;;;5.03;1.92;;;;;;;17.99;100.00;100852.94;4999632;28;20057;-77
2023/07/09 03:34:35;;;;;;;7.25;2.50;;;;;;;17.79;100.00;100822.34;5000379;28;20056;-77
2023/07/09 03:37:01;;;;;;;3.45;1.73;;;;;;;17.42;100.00;100750.69;4999664;28;20030;-77
2023/07/09 03:39:26;;;;;;;2.20;1.40;;;;;;;17.97;100.00;100830.84;5001895;28;20038;-76
2023/07/09 03:41:52;;;;;;;4.68;3.05;;;;;;;18.13;100.00;100842.84;4987423;28;20085;-77
2023/07/09 03:44:17;;;;;;;4.50;1.50;;;;;;;17.93;100.00;100825.63;4999170;28;20049;-78
2023/07/09 03:46:43;;;;;;;8.43;2.05;;;;;;;17.77;100.00;100783.50;4992140;28;20517;-77
2023/07/09 03:49:08;;;;;;;3.00;1.63;;;;;;;17.99;100.00;100815.75;5000303;28;20097;-78
2023/07/09 03:51:34;;;;;;;4.55;2.75;;;;;;;17.62;100.00;100750.22;5007504;28;20680;-78
2023/07/09 03:53:59;;;;;;;5.18;1.52;;;;;;;18.21;100.00;100853.28;4999490;28;20550;-77
2023/07/09 03:56:25;;;;;;;3.80;1.77;;;;;;;18.07;100.00;100832.38;5004820;28;20550;-78
2023/07/09 03:58:50;;;;;;;3.22;1.98;;;;;;;18.32;100.00;100840.59;5000626;28;20045;-77
2023/07/09 04:01:16;;;;;;;4.30;2.22;;;;;;;18.31;100.00;100830.91;5003354;28;20046;-77
2023/07/09 04:03:42;;;;;;;4.18;1.73;;;;;;;18.37;100.00;100844.00;5003607;28;20558;-76
2023/07/09 04:06:07;;;;;;;4.18;1.90;;;;;;;18.39;100.00;100851.97;4999389;28;20047;-76
2023/07/09 04:08:32;;;;;;;5.72;2.42;;;;;;;17.67;100.00;100717.34;5000741;28;20054;-78
2023/07/09 04:11:02;;;;;;;4.75;2.17;;;;;;;18.10;100.00;100760.59;5001929;28;20089;-77
2023/07/09 04:13:28;;;;;;;3.38;1.63;;;;;;;18.10;100.00;100749.97;5000963;28;20057;-77
2023/07/09 04:15:55;;;;;;;3.90;1.92;;;;;;;18.25;100.00;100761.97;5002184;28;20044;-76
2023/07/09 04:18:20;;;;;;;4.28;1.80;;;;;;;18.77;100.00;100821.72;5003726;28;20051;-77
2023/07/09 04:20:50;;;;;;;3.25;1.35;;;;;;;18.85;100.00;100830.38;5003607;28;20418;-78
2023/07/09 04:23:16;;;;;;;4.35;1.88;;;;;;;18.31;100.00;100738.78;5003938;28;20121;-78
2023/07/09 04:25:42;;;;;;;6.78;2.63;;;;;;;18.53;100.00;100759.47;4999495;28;20081;-78
2023/07/09 04:28:07;;;;;;;3.47;1.70;;;;;;;18.88;100.00;100824.09;5000360;28;20510;-78
2023/07/09 04:30:33;;;;;;;5.72;1.70;;;;;;;19.02;100.00;100818.41;5000152;28;20041;-78
2023/07/09 04:32:58;;;;;;;3.35;1.88;;;;;;;19.25;100.00;100828.38;5006986;28;21584;-77
2023/07/09 04:35:24;;;;;;;2.45;1.80;;;;;;;19.19;100.00;100813.47;4999970;28;20047;-77
2023/07/09 04:37:49;;;;;;;5.72;1.67;;;;;;;18.73;100.00;100717.25;5002599;28;20049;-77
2023/07/09 04:40:18;;;;;;;3.63;1.58;;;;;;;19.13;100.00;100763.13;5003003;28;20026;-76
2023/07/09 04:42:43;;;;;;;2.53;1.50;;;;;;;18.65;100.00;100666.06;5006207;28;20116;-77
2023/07/09 04:45:11;;;;;;;2.08;1.20;;;;;;;19.09;100.00;100722.41;4998128;28;20050;-77
2023/07/09 04:47:37;;;;;;;4.50;2.15;;;;;;;19.48;100.00;100783.31;5002295;28;20042;-76
2023/07/09 04:50:05;;;;;;;2.83;1.50;;;;;;;19.38;100.00;100755.22;5003840;28;20108;-76
2023/07/09 04:52:30;;;;;;;22.20;1.70;;;;;;;19.44;100.00;100760.38;5006116;28;20112;-76
2023/07/09 04:54:56;;;;;;;2.53;1.65;;;;;;;20.10;100.00;100842.66;5003071;28;20478;-76
2023/07/09 04:57:22;;;;;;;2.65;1.45;;;;;;;19.60;100.00;100731.50;4999266;28;20077;-76
2023/07/09 04:59:49;;;;;;;2.63;1.48;;;;;;;20.25;100.00;100828.81;4996659;28;20100;-76
2023/07/09 05:02:14;;;;;;;1.90;1.33;;;;;;;20.46;100.00;100840.53;5002179;28;20046;-77
2023/07/09 05:04:40;;;;;;;2.95;1.73;;;;;;;20.59;100.00;100841.91;4997220;28;20497;-77
2023/07/09 05:07:06;;;;;;;2.42;1.40;;;;;;;20.78;100.00;100834.13;5003222;28;20042;-76
2023/07/09 05:09:32;;;;;;;2.47;1.00;;;;;;;20.61;100.00;100765.41;4999465;28;20029;-76
2023/07/09 05:11:58;;;;;;;3.45;1.73;;;;;;;21.47;100.00;100836.97;4999462;28;20532;-77
2023/07/09 05:14:25;;;;;;;2.30;1.25;;;;;;;21.75;100.00;100808.28;4995523;28;20078;-77
2023/07/09 05:16:51;;;;;;;2.08;0.90;;;;;;;21.81;100.00;100741.25;5004438;28;20034;-77
2023/07/09 05:19:16;;;;;;;3.10;1.08;;;;;;;22.79;100.00;100828.00;4999363;28;20482;-76
2023/07/09 05:21:42;;;;;;;2.22;0.90;;;;;;;22.46;100.00;100726.91;4999473;28;20504;-77
2023/07/09 05:24:07;;;;;;;2.78;1.35;;;;;;;22.93;98.53;100772.03;4998623;28;20058;-77
2023/07/09 05:26:33;;;;;;;1.98;1.05;;;;;;;23.28;97.16;100760.69;5005276;28;20064;-77
2023/07/09 05:28:58;;;;;;;9.63;1.63;;;;;;;24.10;96.58;100819.25;4998061;28;20409;-77
2023/07/09 05:31:24;;;;;;;4.28;1.33;;;;;;;24.36;85.91;100802.72;5003589;28;20041;-77
2023/07/09 05:33:49;;;;;;;1.52;1.17;;;;;;;24.75;84.38;100817.72;5001790;28;20037;-76
2023/07/09 05:36:15;;;;;;;3.25;1.33;;;;;;;24.57;81.53;100733.69;5003457;28;20036;-77
2023/07/09 05:38:43;;;;;;;7.85;1.50;;;;;;;25.48;77.92;100825.47;4999483;28;20046;-77
2023/07/09 05:41:09;;;;;;;2.17;1.17;;;;;;;24.72;72.33;100823.22;5002222;28;20068;-77
2023/07/09 05:43:34;;;;;;;1.85;0.88;;;;;;;25.34;74.74;100790.44;5000012;28;20486;-78
2023/07/09 05:46:02;;;;;;;3.28;1.35;;;;;;;25.83;65.19;100804.66;4992927;28;20084;-77
2023/07/09 05:48:28;;;;;;;1.73;0.95;;;;;;;25.94;68.56;100819.31;4998648;28;20085;-77
2023/07/09 05:50:57;;;;;;;1.90;1.10;;;;;;;26.22;68.39;100837.41;5006641;28;20088;-77
2023/07/09 05:53:23;;;;;;;1.25;0.57;;;;;;;26.01;66.89;100738.22;5001189;28;20054;-77
2023/07/09 05:55:52;;;;;;;0.90;0.57;;;;;;;26.73;66.78;100806.53;4996621;28;20540;-78
2023/07/09 05:58:17;;;;;;;1.38;0.60;;;;;;;25.87;58.22;100744.41;4998979;28;20096;-77
2023/07/09 06:00:43;;;;;;;1.80;0.70;;;;;;;26.99;58.83;100809.44;5000813;28;20043;-78
2023/07/09 06:03:09;;;;;;;1.92;1.08;;;;;;;26.57;62.21;100753.72;4983274;28;20393;-77
2023/07/09 06:05:35;;;;;;;2.15;0.80;;;;;;;26.99;62.53;100805.88;5003601;28;20433;-77
2023/07/09 06:08:00;;;;;;;2.00;1.13;;;;;;;27.02;62.19;100811.97;4986056;28;20061;-77
2023/07/09 06:10:26;;;;;;;1.75;0.98;;;;;;;26.99;58.34;100813.97;4999012;28;20049;-75
2023/07/09 06:12:52;;;;;;;2.63;1.40;;;;;;;26.90;60.66;100743.56;5004288;28;20099;-77
2023/07/09 06:15:18;;;;;;;2.25;0.90;;;;;;;26.60;60.89;100714.03;4995330;28;20128;-76
2023/07/09 06:17:43;;;;;;;1.20;0.80;;;;;;;27.22;60.78;100801.78;5004015;28;20057;-77
2023/07/09 06:20:09;;;;;;;0.95;0.80;;;;;;;27.01;62.87;100774.34;5002068;28;20124;-77
2023/07/09 06:22:35;;;;;;;2.05;1.15;;;;;;;26.92;64.09;100721.91;4998568;28;20078;-77
2023/07/09 06:25:00;;;;;;;2.15;1.08;;;;;;;27.26;59.73;100779.94;5001480;28;20470;-75
2023/07/09 06:27:26;;;;;;;2.47;1.40;;;;;;;26.14;54.66;100748.22;4997744;28;20061;-76
2023/07/09 06:29:52;;;;;;;0.63;0.40;;;;;;;26.33;53.25;100803.53;5000693;28;20121;-77
2023/07/09 06:32:17;;;;;;;1.92;0.93;;;;;;;27.01;50.90;100809.34;4998862;28;20100;-74
2023/07/09 06:34:43;;;;;;;1.83;1.00;;;;;;;27.06;49.64;100778.47;4997076;28;20091;-78
2023/07/09 06:37:08;;;;;;;1.10;0.50;;;;;;;25.98;49.22;100778.72;5000474;28;21150;-77
2023/07/09 06:39:34;;;;;;;1.48;0.70;;;;;;;25.82;51.25;100716.84;4998860;28;20058;-77
2023/07/09 06:41:59;;;;;;;3.67;0.88;;;;;;;26.95;48.38;100794.44;4993636;28;20049;-75
2023/07/09 06:44:25;;;;;;;1.58;0.65;;;;;;;27.31;48.63;100791.28;4999710;28;20045;-75
2023/07/09 06:46:51;;;;;;;2.35;0.90;;;;;;;27.49;48.41;100785.69;4999168;28;20042;-74
2023/07/09 06:49:16;;;;;;;1.75;1.05;;;;;;;26.98;50.21;100726.91;4996212;28;20042;-75
2023/07/09 06:51:42;;;;;;;1.95;0.80;;;;;;;26.98;48.86;100735.00;4997868;28;20135;-75
2023/07/09 06:54:08;;;;;;;1.13;0.43;;;;;;;27.11;47.43;100778.16;4986123;28;20100;-75
2023/07/09 06:56:34;;;;;;;1.15;0.82;;;;;;;27.42;48.22;100781.63;4994090;28;20050;-79
2023/07/09 06:59:00;;;;;;;1.00;0.32;;;;;;;27.22;48.88;100775.69;4997330;28;20053;-77
2023/07/09 07:01:25;;;;;;;1.58;1.20;;;;;;;27.35;47.71;100787.44;4996925;28;20047;-77
2023/07/09 07:03:51;;;;;;;1.30;0.50;;;;;;;26.21;49.09;100707.41;5002641;28;20433;-75
2023/07/09 07:06:16;;;;;;;0.88;0.57;;;;;;;27.15;48.59;100780.56;4985075;28;20061;-75
2023/07/09 07:08:42;;;;;;;1.90;1.00;;;;;;;27.35;50.41;100771.25;5005356;28;20100;-76
2023/07/09 07:11:08;;;;;;;2.45;1.67;;;;;;;27.03;47.31;100695.16;5000670;28;20509;-75
2023/07/09 07:13:38;;;;;;;2.75;0.90;;;;;;;26.97;48.99;100697.38;4998686;28;20492;-77
2023/07/09 07:16:09;;;;;;;1.05;0.68;;;;;;;27.10;47.58;100701.88;4992407;28;20042;-75
2023/07/09 07:18:35;;;;;;;2.13;0.90;;;;;;;26.83;46.02;100687.47;5000629;28;20029;-76
2023/07/09 07:21:01;;;;;;;4.97;1.00;;;;;;;26.67;43.42;100792.59;4997076;28;20089;-76
2023/07/09 07:23:27;;;;;;;1.00;0.63;;;;;;;26.27;45.68;100771.63;4998796;28;20603;-76
2023/07/09 07:25:52;;;;;;;1.58;0.63;;;;;;;26.50;43.67;100766.66;4999922;28;20244;-76
2023/07/09 07:28:18;;;;;;;3.35;1.20;;;;;;;26.82;47.03;100748.56;5000868;28;20034;-76
2023/07/09 07:30:44;;;;;;;1.40;0.70;;;;;;;26.49;46.83;100681.50;4998501;28;20667;-75
2023/07/09 07:33:11;;;;;;;0.60;0.40;;;;;;;26.50;44.26;100702.94;5005003;28;20062;-76
2023/07/09 07:35:37;;;;;;;1.17;0.68;;;;;;;27.05;46.16;100757.88;5000284;28;20064;-77
2023/07/09 07:38:03;;;;;;;1.42;0.95;;;;;;;26.93;46.12;100754.13;4999400;28;20561;-76
2023/07/09 07:40:28;;;;;;;2.70;0.57;;;;;;;26.88;45.00;100721.25;4983701;28;20125;-74
2023/07/09 07:42:54;;;;;;;1.42;0.88;;;;;;;26.04;44.37;100699.50;5000105;28;20625;-75
2023/07/09 07:45:21;;;;;;;1.73;0.75;;;;;;;26.60;45.53;100750.84;4998889;28;20146;-75
2023/07/09 07:47:46;;;;;;;3.10;1.58;;;;;;;26.85;47.71;100674.78;5004597;28;20041;-74
2023/07/09 07:50:12;;;;;;;1.63;0.75;;;;;;;26.76;45.04;100678.91;5000869;28;20561;-75
2023/07/09 07:52:37;;;;;;;1.63;0.63;;;;;;;27.16;44.96;100647.59;5007517;28;20058;-77
2023/07/09 07:55:07;;;;;;;1.10;0.75;;;;;;;27.23;44.08;100695.72;5000005;28;20049;-75
2023/07/09 07:57:33;;;;;;;2.42;1.17;;;;;;;26.36;44.95;100758.56;5002278;28;20045;-76
2023/07/09 07:59:59;;;;;;;1.30;0.73;;;;;;;26.72;45.12;100747.41;4999279;28;20120;-76
2023/07/09 08:02:24;;;;;;;0.98;0.40;;;;;;;26.45;44.69;100691.56;5002498;28;20050;-75
2023/07/09 08:04:50;;;;;;;2.63;1.42;;;;;;;27.15;44.01;100713.22;4999951;28;20052;-77
2023/07/09 08:07:18;;;;;;;1.08;0.57;;;;;;;27.56;45.35;100735.78;4997187;28;20474;-77
2023/07/09 08:09:44;;;;;;;2.50;1.10;;;;;;;27.77;43.58;100730.78;5001082;28;20036;-74
2023/07/09 08:12:12;;;;;;;0.90;0.50;;;;;;;26.57;43.75;100675.66;4997184;28;20050;-74
2023/07/09 08:14:38;;;;;;;1.92;0.77;;;;;;;27.04;43.17;100744.50;4997411;28;20505;-75
2023/07/09 08:17:04;;;;;;;1.33;0.75;;;;;;;27.55;42.63;100678.28;5003875;28;20084;-75
2023/07/09 08:19:32;;;;;;;1.50;1.15;;;;;;;27.49;42.22;100694.03;4997645;28;20106;-76
2023/07/09 08:21:58;;;;;;;11.25;1.48;;;;;;;27.87;43.18;100691.47;5000263;28;20030;-75
2023/07/09 08:24:23;;;;;;;1.63;0.90;;;;;;;28.16;40.63;100724.53;5001724;28;20053;-77
2023/07/09 08:26:49;;;;;;;2.15;0.73;;;;;;;27.72;41.25;100732.91;4983578;28;20548;-79
2023/07/09 08:29:15;;;;;;;1.73;0.80;;;;;;;27.56;41.38;100663.00;4998017;28;20486;-74
2023/07/09 08:31:41;;;;;;;1.58;0.68;;;;;;;28.17;52.59;100750.56;4996303;28;20140;-74
2023/07/09 08:34:08;;;;;;;1.60;0.63;;;;;;;27.74;51.92;100717.50;4991240;28;20038;-71
2023/07/09 08:36:33;;;;;;;2.65;0.60;;;;;;;27.83;48.03;100687.25;5003160;28;20049;-71
2023/07/09 08:39:02;;;;;;;2.45;0.90;;;;;;;27.76;48.34;100670.56;5001500;28;20413;-71
2023/07/09 08:41:47;;;;;;;1.30;1.15;;;;;;;27.57;43.08;100608.09;4986592;28;20460;-69
2023/07/09 08:44:42;;;;;;;0.82;0.70;;;;;;;29.15;44.84;100748.25;4997424;28;20117;-71
2023/07/09 08:47:16;;;;;;;1.63;1.05;;;;;;;28.81;45.13;100731.72;4998664;28;20757;-72
2023/07/09 08:49:57;;;;;;;2.00;0.82;;;;;;;27.95;47.49;100737.66;5004890;28;20046;-72
2023/07/09 08:52:36;;;;;;;3.70;1.40;;;;;;;28.17;44.04;100747.88;4999344;28;20082;-71
2023/07/09 08:55:10;;;;;;;3.22;1.00;;;;;;;27.36;43.44;100661.63;4998329;28;20041;-72
2023/07/09 08:57:42;;;;;;;1.38;0.95;;;;;;;27.23;43.83;100669.66;4998356;28;20045;-72
2023/07/09 09:00:21;;;;;;;1.80;0.80;;;;;;;27.89;44.33;100659.00;4997306;28;20181;-71
2023/07/09 09:03:02;;;;;;;1.48;0.90;;;;;;;29.36;43.19;100740.41;4997455;28;20051;-70
2023/07/09 09:05:33;;;;;;;4.35;1.10;;;;;;;27.40;42.85;100682.00;4998757;28;20717;-70
2023/07/09 09:08:04;;;;;;;3.38;1.08;;;;;;;29.13;43.04;100741.25;4982043;28;20418;-72
2023/07/09 09:10:42;;;;;;;2.88;1.42;;;;;;;28.77;43.08;100662.69;4994482;28;20508;-72
2023/07/09 09:13:23;;;;;;;2.17;1.52;;;;;;;28.74;42.33;100729.56;4995086;28;20049;-71
2023/07/09 09:15:49;;;;;;;3.15;1.30;;;;;;;28.57;39.55;100663.28;4996020;28;20058;-70
2023/07/09 09:18:28;;;;;;;2.63;1.35;;;;;;;29.93;40.74;100730.78;4999223;28;20041;-71
2023/07/09 09:21:23;;;;;;;1.67;1.30;;;;;;;28.70;39.79;100742.41;5000707;28;20042;-72
2023/07/09 09:23:58;;;;;;;2.28;1.13;;;;;;;29.18;38.71;100739.91;5000539;28;20379;-72
2023/07/09 09:26:31;;;;;;;1.25;0.90;;;;;;;29.10;39.76;100672.03;4998684;28;20058;-72
2023/07/09 09:28:56;;;;;;;2.40;1.10;;;;;;;30.59;39.11;100709.41;4997528;28;20061;-71
2023/07/09 09:31:26;;;;;;;1.65;1.13;;;;;;;31.19;38.88;100731.75;4998597;28;20057;-71
2023/07/09 09:33:51;;;;;;;0.90;0.60;;;;;;;29.94;38.23;100645.88;4991380;28;20120;-73
2023/07/09 09:36:21;;;;;;;1.63;0.77;;;;;;;30.87;38.98;100724.34;4993904;28;20565;-71
2023/07/09 09:38:47;;;;;;;1.65;0.93;;;;;;;31.08;38.24;100666.69;4998967;28;20104;-71
2023/07/09 09:41:21;;;;;;;1.85;0.85;;;;;;;30.99;37.40;100724.34;4994848;28;20129;-70
2023/07/09 09:43:48;;;;;;;1.75;0.75;;;;;;;30.78;37.99;100716.06;5001735;28;20046;-70
2023/07/09 09:46:19;;;;;;;1.35;0.85;;;;;;;29.40;38.20;100725.66;4999522;28;20133;-72
2023/07/09 09:48:48;;;;;;;1.75;0.90;;;;;;;29.50;39.10;100650.16;4994806;28;20042;-70
2023/07/09 09:51:14;;;;;;;1.60;1.00;;;;;;;29.83;39.75;100694.59;5004108;28;20073;-70
2023/07/09 09:53:49;;;;;;;3.22;1.60;;;;;;;30.76;38.56;100713.47;4997807;28;20745;-73
2023/07/09 09:56:27;;;;;;;2.50;1.23;;;;;;;31.84;38.47;100702.81;4996148;28;20046;-72
2023/07/09 09:58:54;;;;;;;6.20;3.22;;;;;;;31.71;37.00;100656.03;4998770;28;20104;-72
2023/07/09 10:01:22;;;;;;;7.93;4.43;;;;;;;31.64;38.25;100698.25;4932935;28;1801952;-72
2023/07/09 10:03:51;;;;;;;3.67;1.70;;;;;;;30.28;38.78;100692.03;4997384;28;20041;-72
2023/07/09 10:06:20;;;;;;;2.30;1.58;;;;;;;29.44;39.13;100637.94;4994248;28;20464;-71
2023/07/09 10:08:49;;;;;;;2.30;1.13;;;;;;;30.66;38.09;100717.91;4992433;28;20125;-73
2023/07/09 10:11:29;;;;;;;8.23;5.75;;;;;;;29.51;39.01;100651.00;5001558;28;20057;-72
2023/07/09 10:14:00;;;;;;;6.72;3.33;;;;;;;30.40;38.76;100625.22;4993511;28;20604;-72
2023/07/09 10:16:36;;;;;;;2.05;1.35;;;;;;;31.64;39.87;100712.66;4990185;28;20478;-71
2023/07/09 10:19:04;;;;;;;2.65;1.20;;;;;;;31.99;37.20;100703.41;5001425;28;20145;-72
2023/07/09 10:21:46;;;;;;;1.42;0.95;;;;;;;32.05;37.69;100647.72;5001417;28;20057;-73
2023/07/09 10:24:27;;;;;;;0.87;0.63;;;;;;;32.46;37.74;100692.13;4992641;28;20058;-71
2023/07/09 10:27:03;;;;;;;1.65;0.75;;;;;;;31.73;36.16;100629.63;4998495;28;20155;-71
2023/07/09 10:29:55;;;;;;;1.85;0.90;;;;;;;32.56;36.26;100695.78;4997121;28;20103;-73
2023/07/09 10:32:27;;;;;;;2.10;1.30;;;;;;;32.00;36.84;100674.41;5000774;28;20053;-71
2023/07/09 10:34:58;;;;;;;1.67;1.23;;;;;;;31.64;37.62;100665.69;5000382;28;20195;-72
2023/07/09 10:37:57;;;;;;;1.92;0.93;;;;;;;29.91;37.59;100621.78;4986384;28;20054;-71
2023/07/09 10:40:33;;;;;;;1.45;0.63;;;;;;;31.95;37.52;100617.75;4987566;28;20058;-72
2023/07/09 10:43:02;;;;;;;3.10;0.60;;;;;;;31.73;38.06;100686.63;5002278;28;20169;-72
2023/07/09 10:45:39;;;;;;;1.67;0.85;;;;;;;32.55;35.63;100689.50;4994125;28;20042;-72
2023/07/09 10:48:18;;;;;;;4.20;1.65;;;;;;;32.67;35.58;100602.44;5003156;28;20054;-72
2023/07/09 10:50:50;;;;;;;2.75;1.00;;;;;;;33.11;35.46;100671.00;4999335;28;20561;-72
2023/07/09 10:53:24;;;;;;;;;;;;;;;32.91;35.55;100681.75;4984707;28;20042;-73
2023/07/09 10:56:14;;;;;;;4.53;1.27;;;;;;;32.31;35.02;100686.16;4993778;28;20731;-72
2023/07/09 10:58:50;;;;;;;3.67;1.58;;;;;;;32.40;36.07;100679.94;4994381;28;20064;-70
2023/07/09 11:01:19;;;;;;;1.30;0.80;;;;;;;32.61;34.95;100654.63;4998453;28;20056;-70
2023/07/09 11:03:50;;;;;;;1.67;0.88;;;;;;;32.15;34.65;100670.38;5003741;28;21876;-71
2023/07/09 11:06:41;;;;;;;1.25;0.80;;;;;;;32.37;34.96;100675.63;5000966;28;20047;-70
2023/07/09 11:09:30;;;;;;;1.83;1.25;;;;;;;32.66;35.62;100669.50;4997897;28;20053;-71
2023/07/09 11:12:12;;;;;;;2.00;1.20;;;;;;;32.16;36.86;100593.34;4995022;28;20068;-71
2023/07/09 11:14:48;;;;;;;3.03;0.93;;;;;;;32.53;35.76;100674.34;4999079;28;20131;-70
2023/07/09 11:17:18;;;;;;;1.20;0.98;;;;;;;32.57;35.11;100660.34;5000451;28;20077;-71
2023/07/09 11:19:46;;;;;;;3.03;1.20;;;;;;;32.37;35.64;100653.06;5000708;28;20100;-71
2023/07/09 11:22:37;;;;;;;4.78;1.35;;;;;;;31.39;35.39;100596.31;4997206;28;20490;-70
2023/07/09 11:25:12;;;;;;;1.40;0.88;;;;;;;31.40;36.36;100644.16;5004427;28;20053;-71
2023/07/09 11:28:03;;;;;;;1.77;0.77;;;;;;;31.16;37.79;100585.56;5004449;28;20045;-71
2023/07/09 11:30:29;;;;;;;0.75;0.57;;;;;;;31.33;37.23;100595.00;4984253;28;20505;-71